Decoded Metar for K2V5 ( in ) (IATA:) | Meteo·Mobile Aviation Weather
aviador You're here:

K2V5 Decoded Metar

in
Report Time2018-08-22 04:15:00
UTC Time2018-08-22 04:31:17
Flight Rules vfr VFR
Wind140° at 08 kt
W.Rank140° ranks 11
Current wind is below 140° avg. (9.1)
Visibility9999 m
Phenomena:N/A
Clouds:N/A
Expected CloudBase > 1,600 ft AGL from Temp-Dew spread
CeilingNone
Temp15°C
Dew Point11°C (77% RH)
AAT12.4°C
QNH1027 hPa
Raw Report
K2V5 220415Z AUTO 14008KT 10SM CLR 15/11 A3033 RMK AO2=

Extra information for K2V5:More info

Social comments